Time;durP1;ratioP1;P1;durP2;ratioP2;P2;SDS_P1;SDS_P2;PMS_P1;PMS_P2;Temp;Humidity;BMP_temperature;BMP_pressure;BME280_temperature;BME280_humidity;BME280_pressure;Samples;Min_cycle;Max_cycle;Signal;HPM_P1;HPM_P2
2021/05/26 00:01:37;;;;;;;4.28;1.40;;;;;;;9.79;83.50;100447.94;5011016;28;20042;-80
2021/05/26 00:04:04;;;;;;;3.55;0.93;;;;;;;9.91;82.26;100449.22;4996168;28;20046;-79
2021/05/26 00:06:31;;;;;;;4.03;1.38;;;;;;;9.96;82.02;100442.78;4994285;28;20074;-79
2021/05/26 00:08:57;;;;;;;3.78;1.20;;;;;;;10.00;81.33;100436.44;4991816;28;20054;-78
2021/05/26 00:11:24;;;;;;;3.58;1.40;;;;;;;9.96;81.71;100426.91;4993554;28;20074;-78
2021/05/26 00:13:51;;;;;;;3.53;1.10;;;;;;;10.03;81.41;100430.16;4989471;28;20070;-79
2021/05/26 00:16:19;;;;;;;4.15;1.25;;;;;;;10.00;81.57;100430.28;5026702;28;20061;-79
2021/05/26 00:18:46;;;;;;;5.05;1.20;;;;;;;9.92;81.45;100424.47;4979994;28;20048;-81
2021/05/26 00:21:14;;;;;;;2.72;1.10;;;;;;;9.93;81.96;100421.75;5019092;28;20110;-81
2021/05/26 00:23:42;;;;;;;6.40;1.55;;;;;;;9.94;81.51;100426.13;4979687;28;20116;-81
2021/05/26 00:26:09;;;;;;;4.65;1.33;;;;;;;9.94;81.70;100422.63;4986484;28;20331;-80
2021/05/26 00:28:35;;;;;;;3.53;1.20;;;;;;;9.99;81.23;100412.69;4993846;28;20051;-80
2021/05/26 00:31:04;;;;;;;6.35;1.20;;;;;;;10.04;80.64;100416.88;4993256;28;20122;-79
2021/05/26 00:33:31;;;;;;;4.78;1.50;;;;;;;10.07;80.87;100421.19;5007413;28;20110;-79
2021/05/26 00:35:58;;;;;;;2.60;1.00;;;;;;;10.07;80.95;100427.28;5001766;28;20062;-80
2021/05/26 00:38:26;;;;;;;4.22;1.30;;;;;;;10.15;80.40;100430.47;5026437;28;20097;-81
2021/05/26 00:40:53;;;;;;;4.03;1.20;;;;;;;10.16;80.29;100434.84;5001854;28;20105;-80
2021/05/26 00:43:21;;;;;;;4.65;1.38;;;;;;;10.21;80.78;100439.13;5005108;28;20047;-79
2021/05/26 00:45:48;;;;;;;4.47;1.20;;;;;;;10.18;81.56;100432.13;4975545;28;20110;-80
2021/05/26 00:48:15;;;;;;;4.97;1.50;;;;;;;10.18;81.65;100426.84;5002058;28;20058;-79
2021/05/26 00:50:43;;;;;;;2.38;1.13;;;;;;;10.13;82.65;100415.59;4988090;28;20089;-79
2021/05/26 00:53:14;;;;;;;5.43;1.40;;;;;;;10.06;83.43;100411.53;4986931;28;20073;-79
2021/05/26 00:55:42;;;;;;;4.50;1.42;;;;;;;9.98;84.21;100397.75;5006719;28;20086;-81
2021/05/26 00:58:11;;;;;;;4.38;1.55;;;;;;;9.95;85.28;100404.03;4995371;28;20050;-80
2021/05/26 01:00:40;;;;;;;4.97;1.58;;;;;;;9.96;85.81;100397.81;4994599;28;20182;-80
2021/05/26 01:03:07;;;;;;;6.65;1.63;;;;;;;9.92;85.56;100400.66;4994285;28;20120;-82
2021/05/26 01:05:34;;;;;;;3.72;1.67;;;;;;;9.87;85.95;100381.50;4960283;28;20147;-80
2021/05/26 01:08:01;;;;;;;2.53;1.52;;;;;;;9.83;85.92;100376.34;4991665;28;20046;-79
2021/05/26 01:10:29;;;;;;;6.22;1.67;;;;;;;9.78;86.09;100365.09;5011370;28;20058;-80
2021/05/26 01:12:59;;;;;;;4.82;1.73;;;;;;;9.77;86.53;100367.81;4997675;28;20054;-81
2021/05/26 01:15:27;;;;;;;2.55;1.50;;;;;;;9.73;86.55;100358.31;5006545;28;20133;-80
2021/05/26 01:17:53;;;;;;;5.95;1.60;;;;;;;9.67;86.70;100354.16;5005049;28;20058;-80
2021/05/26 01:20:30;;;;;;;6.53;1.80;;;;;;;9.73;87.08;100355.69;4998427;28;20050;-81
2021/05/26 01:22:59;;;;;;;6.70;1.85;;;;;;;9.75;87.43;100364.41;4988052;28;20137;-81
2021/05/26 01:25:26;;;;;;;4.80;1.83;;;;;;;9.77;88.07;100362.53;5001094;28;20046;-81
2021/05/26 01:27:54;;;;;;;2.28;1.70;;;;;;;9.77;87.63;100358.09;4992353;28;20118;-82
2021/05/26 01:30:25;;;;;;;3.27;1.53;;;;;;;9.83;87.83;100363.13;4993436;28;20045;-82
2021/05/26 01:32:53;;;;;;;4.00;1.48;;;;;;;9.83;87.44;100362.28;4997952;28;20529;-81
2021/05/26 01:35:22;;;;;;;7.40;1.52;;;;;;;9.88;87.09;100362.06;4998380;28;20058;-82
2021/05/26 01:37:49;;;;;;;5.45;1.58;;;;;;;9.84;87.35;100359.56;4991493;28;20060;-82
2021/05/26 01:40:19;;;;;;;5.38;1.60;;;;;;;9.81;87.18;100357.03;4978110;28;20049;-82
2021/05/26 01:42:46;;;;;;;4.47;1.85;;;;;;;9.83;86.76;100368.41;4997664;28;20070;-81
2021/05/26 01:45:15;;;;;;;4.30;1.88;;;;;;;9.80;86.80;100365.03;4977084;28;20046;-82
2021/05/26 01:47:44;;;;;;;6.55;1.40;;;;;;;9.79;87.18;100361.53;4991608;28;20117;-82
2021/05/26 01:50:24;;;;;;;6.60;1.30;;;;;;;9.77;86.66;100358.09;4980927;28;20061;-82
2021/05/26 01:52:55;;;;;;;5.40;1.88;;;;;;;9.76;86.79;100363.44;4991429;28;20077;-82
2021/05/26 01:55:27;;;;;;;4.38;1.70;;;;;;;9.74;86.76;100357.41;4995689;28;20105;-83
2021/05/26 01:57:53;;;;;;;3.67;1.38;;;;;;;9.74;87.03;100357.41;5003595;28;20060;-83
2021/05/26 02:00:20;;;;;;;7.10;2.00;;;;;;;9.72;87.21;100352.19;4987254;28;20141;-79
2021/05/26 02:02:49;;;;;;;2.80;1.50;;;;;;;9.73;86.87;100355.69;4980112;28;20125;-79
2021/05/26 02:05:17;;;;;;;4.60;1.60;;;;;;;9.72;87.05;100346.03;4979088;28;20132;-81
2021/05/26 02:07:45;;;;;;;6.15;2.13;;;;;;;9.72;86.79;100343.38;4958879;28;20136;-83
2021/05/26 02:10:15;;;;;;;5.55;1.52;;;;;;;9.75;87.07;100353.84;4986493;28;20128;-82
2021/05/26 02:12:43;;;;;;;5.05;1.73;;;;;;;9.76;87.11;100344.94;4995494;28;20157;-79
2021/05/26 02:15:17;;;;;;;2.90;1.83;;;;;;;9.74;87.00;100347.69;4992762;28;20043;-82
2021/05/26 02:17:46;;;;;;;5.55;1.40;;;;;;;9.73;86.90;100345.97;4994779;28;20494;-82
2021/05/26 02:20:14;;;;;;;3.83;1.60;;;;;;;9.77;87.71;100344.00;4979247;28;20052;-81
2021/05/26 02:22:44;;;;;;;2.17;1.30;;;;;;;9.72;87.57;100338.09;4999745;28;20153;-82
2021/05/26 02:25:11;;;;;;;4.95;1.80;;;;;;;9.74;87.93;100330.97;4987250;28;20046;-82
2021/05/26 02:27:40;;;;;;;3.83;1.55;;;;;;;9.76;87.75;100334.38;4983917;28;20081;-80
2021/05/26 02:30:07;;;;;;;4.22;1.70;;;;;;;9.76;88.09;100340.50;4983625;28;20055;-80
2021/05/26 02:32:36;;;;;;;2.88;1.50;;;;;;;9.73;87.38;100334.53;5004106;28;20121;-81
2021/05/26 02:35:04;;;;;;;4.80;1.60;;;;;;;9.69;87.68;100330.28;5010735;28;20065;-79
2021/05/26 02:37:32;;;;;;;5.57;1.63;;;;;;;9.68;87.65;100326.78;4994263;28;20081;-79
2021/05/26 02:39:58;;;;;;;4.97;1.80;;;;;;;9.67;87.86;100327.72;4986298;28;20142;-79
2021/05/26 02:42:25;;;;;;;5.63;1.98;;;;;;;9.68;88.02;100320.63;5005493;28;20141;-79
2021/05/26 02:44:53;;;;;;;5.85;1.70;;;;;;;9.59;87.78;100306.06;5008331;28;20121;-79
2021/05/26 02:47:21;;;;;;;2.92;1.35;;;;;;;9.60;87.97;100304.28;5009204;28;20054;-81
2021/05/26 02:49:50;;;;;;;5.70;1.52;;;;;;;9.60;87.81;100310.38;4990275;28;20073;-79
2021/05/26 02:52:16;;;;;;;5.25;1.67;;;;;;;9.60;88.09;100312.22;4974358;28;20113;-79
2021/05/26 02:54:43;;;;;;;5.22;1.70;;;;;;;9.60;88.00;100310.38;5004379;28;20051;-79
2021/05/26 02:57:12;;;;;;;4.47;1.55;;;;;;;9.61;88.12;100298.88;5007461;28;20078;-80
2021/05/26 02:59:39;;;;;;;3.97;1.40;;;;;;;9.63;88.27;100301.47;4987917;28;20053;-79
2021/05/26 03:02:06;;;;;;;4.70;1.90;;;;;;;9.60;88.56;100299.00;5003594;28;20061;-79
2021/05/26 03:04:33;;;;;;;5.25;1.75;;;;;;;9.50;88.80;100280.00;4983874;28;20046;-81
2021/05/26 03:06:59;;;;;;;2.90;1.60;;;;;;;9.61;88.91;100298.88;5007672;28;20084;-80
2021/05/26 03:09:27;;;;;;;5.65;1.70;;;;;;;9.64;88.94;100303.19;5008816;28;20089;-82
2021/05/26 03:11:53;;;;;;;5.32;1.63;;;;;;;9.59;88.87;100289.34;4968867;28;20051;-80
2021/05/26 03:14:20;;;;;;;3.78;1.50;;;;;;;9.56;88.69;100282.41;4980452;28;20088;-80
2021/05/26 03:16:47;;;;;;;8.55;1.95;;;;;;;9.59;88.80;100290.19;4998515;28;20061;-80
2021/05/26 03:19:13;;;;;;;3.95;1.63;;;;;;;9.56;89.22;100284.19;4974685;28;20042;-80
2021/05/26 03:21:41;;;;;;;2.83;1.77;;;;;;;9.52;89.21;100279.94;4997576;28;20050;-81
2021/05/26 03:24:11;;;;;;;4.57;2.00;;;;;;;9.58;89.02;100290.25;5010999;28;20123;-81
2021/05/26 03:26:38;;;;;;;3.55;1.70;;;;;;;9.54;89.06;100278.97;5006288;28;20106;-81
2021/05/26 03:29:07;;;;;;;5.15;1.85;;;;;;;9.57;89.65;100275.31;5014150;28;20058;-81
2021/05/26 03:31:33;;;;;;;6.68;2.22;;;;;;;9.57;89.36;100272.69;5014837;28;20078;-81
2021/05/26 03:34:03;;;;;;;4.28;1.73;;;;;;;9.56;89.57;100273.59;5012468;28;20026;-83
2021/05/26 03:36:31;;;;;;;5.88;2.10;;;;;;;9.56;89.87;100270.97;5014278;28;20042;-81
2021/05/26 03:39:00;;;;;;;5.05;2.05;;;;;;;9.57;90.00;100270.03;4990027;28;20038;-81
2021/05/26 03:41:26;;;;;;;4.95;1.73;;;;;;;9.61;90.30;100266.31;4997689;28;20054;-82
2021/05/26 03:43:54;;;;;;;4.40;2.00;;;;;;;9.59;90.29;100262.91;4978205;28;20050;-81
2021/05/26 03:46:21;;;;;;;7.78;2.40;;;;;;;9.60;90.42;100254.03;4995955;28;20422;-83
2021/05/26 03:48:48;;;;;;;5.45;2.20;;;;;;;9.57;90.75;100255.03;4975762;28;20390;-81
2021/05/26 03:51:15;;;;;;;5.40;2.30;;;;;;;9.52;91.10;100253.50;4979372;28;20046;-81
2021/05/26 03:53:42;;;;;;;5.07;2.30;;;;;;;9.53;91.15;100257.88;4966006;28;20107;-80
2021/05/26 03:56:08;;;;;;;7.22;2.65;;;;;;;9.55;91.88;100250.75;4972152;28;20139;-80
2021/05/26 03:58:36;;;;;;;4.38;2.40;;;;;;;9.61;91.85;100261.03;4969979;28;20047;-82
2021/05/26 04:01:03;;;;;;;4.15;2.38;;;;;;;9.60;91.59;100254.03;4996421;28;20118;-79
2021/05/26 04:03:32;;;;;;;6.63;2.55;;;;;;;9.60;91.40;100256.69;4985000;28;20047;-80
2021/05/26 04:06:03;;;;;;;9.30;2.83;;;;;;;9.48;91.66;100243.06;4970042;28;20082;-80
2021/05/26 04:08:30;;;;;;;4.25;2.33;;;;;;;9.52;92.17;100253.50;4996661;28;20046;-80
2021/05/26 04:10:57;;;;;;;6.07;2.47;;;;;;;9.44;92.67;100254.69;5002125;28;20042;-82
2021/05/26 04:13:23;;;;;;;10.05;3.03;;;;;;;9.38;93.12;100241.78;4984017;28;20205;-82
2021/05/26 04:15:51;;;;;;;8.27;3.15;;;;;;;9.35;93.78;100244.56;4985331;28;20081;-80
2021/05/26 04:18:18;;;;;;;8.35;3.88;;;;;;;9.34;94.01;100240.19;4985637;28;20524;-81
2021/05/26 04:20:44;;;;;;;6.65;3.40;;;;;;;9.32;94.49;100241.19;5001832;28;20374;-82
2021/05/26 04:23:12;;;;;;;7.47;2.95;;;;;;;9.34;95.06;100234.91;4985058;28;20109;-81
2021/05/26 04:25:38;;;;;;;7.95;2.85;;;;;;;9.30;95.35;100230.66;4988841;28;20122;-80
2021/05/26 04:28:09;;;;;;;9.65;3.17;;;;;;;9.33;95.66;100233.19;5009150;28;20077;-81
2021/05/26 04:30:36;;;;;;;9.20;3.30;;;;;;;9.36;95.18;100240.97;4977088;28;20078;-81
2021/05/26 04:33:07;;;;;;;7.97;3.15;;;;;;;9.36;95.52;100233.06;5011744;28;20054;-79
2021/05/26 04:35:34;;;;;;;7.63;3.65;;;;;;;9.32;95.42;100227.97;5012146;28;20053;-79
2021/05/26 04:38:01;;;;;;;7.65;3.50;;;;;;;9.27;96.05;100222.91;5009573;28;20046;-80
2021/05/26 04:40:27;;;;;;;9.93;3.45;;;;;;;9.33;96.59;100229.69;5006686;28;20449;-79
2021/05/26 04:42:54;;;;;;;8.50;3.78;;;;;;;9.41;95.42;100233.72;4992649;28;20450;-80
2021/05/26 04:45:21;;;;;;;7.43;3.15;;;;;;;9.35;94.98;100220.75;5004211;28;20081;-80
2021/05/26 04:47:48;;;;;;;11.40;3.67;;;;;;;9.32;95.73;100225.31;5001482;28;20081;-80
2021/05/26 04:50:15;;;;;;;10.07;3.40;;;;;;;9.26;96.50;100217.69;5003409;28;20492;-80
2021/05/26 04:52:42;;;;;;;11.55;3.53;;;;;;;9.25;97.15;100222.13;5005424;28;20060;-80
2021/05/26 04:55:09;;;;;;;5.70;3.45;;;;;;;9.35;96.89;100227.84;5004897;28;20054;-81
2021/05/26 04:57:37;;;;;;;7.57;3.42;;;;;;;9.35;96.36;100227.84;5000462;28;20141;-81
2021/05/26 05:00:07;;;;;;;9.50;3.42;;;;;;;9.31;96.35;100224.47;4995240;28;20042;-80
2021/05/26 05:02:34;;;;;;;6.93;3.33;;;;;;;9.30;97.24;100228.03;5015625;28;20076;-80
2021/05/26 05:05:01;;;;;;;9.57;3.70;;;;;;;9.29;97.40;100226.31;4998476;28;20054;-81
2021/05/26 05:07:28;;;;;;;6.85;3.15;;;;;;;9.32;97.59;100222.69;4988791;28;20130;-80
2021/05/26 05:09:55;;;;;;;7.05;3.55;;;;;;;9.32;97.59;100210.31;4965473;28;20055;-81
2021/05/26 05:12:23;;;;;;;10.30;3.72;;;;;;;9.27;97.64;100198.25;4966031;28;20109;-81
2021/05/26 05:14:49;;;;;;;10.18;3.85;;;;;;;9.31;97.91;100202.47;4965257;28;20142;-80
2021/05/26 05:17:16;;;;;;;8.20;3.63;;;;;;;9.31;97.67;100200.69;4996823;28;20140;-81
2021/05/26 05:19:42;;;;;;;14.90;4.20;;;;;;;9.29;98.20;100189.31;5002263;28;20054;-80
2021/05/26 05:22:09;;;;;;;8.23;3.45;;;;;;;9.34;98.27;100194.41;5000397;28;20046;-80
2021/05/26 05:24:37;;;;;;;7.75;3.45;;;;;;;9.37;98.32;100183.72;4983073;28;20138;-81
2021/05/26 05:27:04;;;;;;;9.15;3.60;;;;;;;9.39;98.04;100182.72;5000659;28;20050;-80
2021/05/26 05:29:31;;;;;;;8.23;3.58;;;;;;;9.37;97.71;100186.34;4982586;28;20042;-81
2021/05/26 05:31:57;;;;;;;9.48;3.88;;;;;;;9.39;98.05;100181.84;4964429;28;20065;-81
2021/05/26 05:34:24;;;;;;;7.90;3.95;;;;;;;9.41;97.78;100191.44;4990521;28;20054;-80
2021/05/26 05:36:50;;;;;;;6.75;3.90;;;;;;;9.41;97.95;100180.88;5002644;28;20081;-80
2021/05/26 05:39:17;;;;;;;9.38;3.78;;;;;;;9.52;97.82;100187.44;5001163;28;20046;-81
2021/05/26 05:41:45;;;;;;;12.30;4.25;;;;;;;9.43;97.09;100172.88;4983573;28;20080;-81
2021/05/26 05:44:12;;;;;;;9.32;4.53;;;;;;;9.40;97.56;100168.56;4981862;28;20062;-81
2021/05/26 05:46:38;;;;;;;9.98;4.00;;;;;;;9.54;97.48;100188.22;4993942;28;20128;-81
2021/05/26 05:49:05;;;;;;;9.13;3.78;;;;;;;9.49;97.58;100193.72;4985398;28;20397;-81
2021/05/26 05:51:32;;;;;;;9.95;4.72;;;;;;;9.44;97.55;100188.63;4985455;28;20061;-81
2021/05/26 05:53:58;;;;;;;8.70;4.85;;;;;;;9.39;98.08;100180.06;4968953;28;20439;-81
2021/05/26 05:56:25;;;;;;;10.65;4.70;;;;;;;9.37;98.74;100178.41;5000464;28;20050;-81
2021/05/26 05:58:52;;;;;;;11.73;4.90;;;;;;;9.41;99.12;100183.50;4980568;28;20130;-81
2021/05/26 06:01:21;;;;;;;10.27;4.68;;;;;;;9.43;99.50;100171.09;4966866;28;20054;-81
2021/05/26 06:03:47;;;;;;;9.82;4.78;;;;;;;9.37;99.20;100170.50;4999723;28;20133;-81
2021/05/26 06:06:14;;;;;;;10.45;5.03;;;;;;;9.43;99.25;100176.38;4992752;28;20469;-82
2021/05/26 06:08:41;;;;;;;10.02;4.57;;;;;;;9.43;99.04;100176.38;5003962;28;20100;-81
2021/05/26 06:11:08;;;;;;;11.02;4.63;;;;;;;9.38;99.25;100165.13;5000862;28;20141;-79
2021/05/26 06:13:38;;;;;;;12.50;5.50;;;;;;;9.34;99.56;100166.19;5002546;28;20077;-81
2021/05/26 06:16:04;;;;;;;11.27;5.10;;;;;;;9.39;99.29;100179.22;5005007;28;20054;-80
2021/05/26 06:18:31;;;;;;;14.68;5.13;;;;;;;9.44;100.00;100167.47;5002934;28;20512;-80
2021/05/26 06:20:58;;;;;;;10.77;5.10;;;;;;;9.48;99.76;100171.72;4987360;28;20042;-80
2021/05/26 06:23:27;;;;;;;10.18;4.95;;;;;;;9.47;99.49;100172.63;4989848;28;20050;-81
2021/05/26 06:25:53;;;;;;;12.13;5.50;;;;;;;9.47;99.26;100170.00;4962415;28;20157;-79
2021/05/26 06:28:20;;;;;;;12.52;5.20;;;;;;;9.41;98.50;100165.00;4987668;28;20102;-82
2021/05/26 06:30:47;;;;;;;12.77;5.13;;;;;;;9.42;98.75;100168.50;4996147;28;20102;-81
2021/05/26 06:33:14;;;;;;;12.18;6.38;;;;;;;9.46;99.31;100170.91;5004523;28;20050;-79
2021/05/26 06:35:40;;;;;;;9.98;6.18;;;;;;;9.51;99.36;100170.72;4983394;28;20114;-80
2021/05/26 06:38:07;;;;;;;12.27;6.30;;;;;;;9.51;99.50;100162.78;4996087;28;20051;-79
2021/05/26 06:40:34;;;;;;;17.75;6.63;;;;;;;9.60;99.99;100169.44;4995219;28;20109;-80
2021/05/26 06:43:00;;;;;;;14.80;6.55;;;;;;;9.70;100.00;100154.84;4984645;28;20052;-80
2021/05/26 06:45:27;;;;;;;11.93;5.97;;;;;;;9.75;100.00;100163.44;5005457;28;20117;-80
2021/05/26 06:47:53;;;;;;;12.38;6.18;;;;;;;9.69;100.00;100155.78;5001036;28;20046;-80
2021/05/26 06:50:20;;;;;;;11.70;5.28;;;;;;;9.65;100.00;100149.78;4997788;28;20109;-83
2021/05/26 06:52:47;;;;;;;12.07;6.15;;;;;;;9.58;100.00;100144.88;4992281;28;20108;-81
2021/05/26 06:55:14;;;;;;;9.27;6.30;;;;;;;9.58;100.00;100155.44;4977660;28;20050;-80
2021/05/26 06:57:41;;;;;;;11.40;5.50;;;;;;;9.57;100.00;100167.81;4986392;28;20073;-80
2021/05/26 07:00:09;;;;;;;11.40;5.75;;;;;;;9.61;100.00;100158.78;4982101;28;20034;-81
2021/05/26 07:02:38;;;;;;;14.55;6.35;;;;;;;9.60;100.00;100146.47;4995506;28;20053;-80
2021/05/26 07:05:07;;;;;;;11.73;6.25;;;;;;;9.62;100.00;100139.34;4997382;28;20049;-81
2021/05/26 07:07:34;;;;;;;15.90;7.78;;;;;;;9.70;100.00;100131.91;4990038;28;20047;-82
2021/05/26 07:10:02;;;;;;;14.55;6.68;;;;;;;9.75;100.00;100134.34;4986965;28;20039;-82
2021/05/26 07:12:29;;;;;;;10.57;7.40;;;;;;;9.75;100.00;100132.56;4985545;28;20056;-82
2021/05/26 07:14:55;;;;;;;12.10;8.00;;;;;;;9.80;100.00;100129.69;4983051;28;20110;-80
2021/05/26 07:17:22;;;;;;;13.93;7.18;;;;;;;9.79;100.00;100133.25;4999395;28;20086;-82
2021/05/26 07:19:50;;;;;;;11.57;7.32;;;;;;;9.80;99.91;100129.69;4983106;28;20067;-82
2021/05/26 07:22:17;;;;;;;11.30;6.85;;;;;;;9.94;99.70;100134.31;4999141;28;20038;-82
2021/05/26 07:24:44;;;;;;;7.90;6.00;;;;;;;9.98;99.78;100135.88;4990370;28;20058;-82
2021/05/26 07:27:12;;;;;;;11.00;6.18;;;;;;;10.01;99.57;100128.66;4982433;28;20046;-82
2021/05/26 07:29:39;;;;;;;15.07;6.70;;;;;;;10.03;99.80;100118.84;4981947;28;20053;-81
2021/05/26 07:32:06;;;;;;;9.60;5.20;;;;;;;10.07;99.75;100124.88;4991357;28;20048;-80
2021/05/26 07:34:32;;;;;;;12.60;4.88;;;;;;;10.06;99.53;100116.06;4978089;28;20109;-81
2021/05/26 07:36:59;;;;;;;10.35;4.55;;;;;;;10.13;99.34;100119.25;4991932;28;20054;-82
2021/05/26 07:39:28;;;;;;;8.50;3.92;;;;;;;10.21;98.57;100117.13;4995579;28;20042;-82
2021/05/26 07:41:55;;;;;;;9.57;4.13;;;;;;;10.25;98.40;100123.09;4974321;28;20105;-82
2021/05/26 07:44:24;;;;;;;12.40;5.05;;;;;;;10.28;98.40;100120.31;4966688;28;20058;-81
2021/05/26 07:46:54;;;;;;;9.70;4.28;;;;;;;10.35;98.48;100124.38;4975556;28;20054;-80
2021/05/26 07:49:21;;;;;;;7.03;3.72;;;;;;;10.42;98.55;100112.53;4992293;28;20046;-82
2021/05/26 07:51:53;;;;;;;9.35;3.50;;;;;;;10.54;98.32;100114.56;4995044;28;20058;-80
2021/05/26 07:54:22;;;;;;;6.30;3.58;;;;;;;10.65;98.41;100119.31;4997854;28;20081;-79
2021/05/26 07:56:50;;;;;;;9.23;3.60;;;;;;;10.71;97.70;100118.97;4981563;28;20054;-80
2021/05/26 07:59:18;;;;;;;9.63;3.70;;;;;;;10.74;97.12;100124.13;5003691;28;20073;-80
2021/05/26 08:01:45;;;;;;;8.80;3.50;;;;;;;10.74;96.75;100114.38;4982425;28;20050;-79
2021/05/26 08:04:13;;;;;;;8.30;3.75;;;;;;;10.81;96.47;100112.28;4987885;28;20046;-79
2021/05/26 08:06:41;;;;;;;9.32;3.70;;;;;;;10.87;96.67;100104.84;4986984;28;20047;-79
2021/05/26 08:09:07;;;;;;;7.82;3.28;;;;;;;11.01;96.44;100112.09;4990828;28;20117;-81
2021/05/26 08:11:34;;;;;;;6.07;3.30;;;;;;;11.11;94.94;100107.16;5002809;28;20070;-81
2021/05/26 08:14:01;;;;;;;7.65;3.60;;;;;;;11.13;94.95;100103.47;4998415;28;20037;-81
2021/05/26 08:16:29;;;;;;;7.50;3.40;;;;;;;11.15;94.36;100103.41;5006759;28;20069;-81
2021/05/26 08:18:55;;;;;;;6.32;3.10;;;;;;;11.10;93.74;100103.63;5003818;28;20046;-79
2021/05/26 08:21:22;;;;;;;6.15;3.38;;;;;;;11.08;94.25;100099.34;4987331;28;20462;-80
2021/05/26 08:23:49;;;;;;;8.38;3.38;;;;;;;11.21;94.60;100087.16;4980694;28;20050;-80
2021/05/26 08:26:21;;;;;;;6.72;3.28;;;;;;;11.33;94.03;100094.44;4984995;28;20102;-80
2021/05/26 08:28:52;;;;;;;6.93;3.85;;;;;;;11.45;94.48;100091.13;4997042;28;20065;-80
2021/05/26 08:31:20;;;;;;;8.07;4.32;;;;;;;11.51;94.10;100093.41;5011373;28;20059;-80
2021/05/26 08:33:47;;;;;;;7.53;3.72;;;;;;;11.41;94.12;100078.09;5009490;28;20049;-79
2021/05/26 08:36:14;;;;;;;9.18;4.45;;;;;;;11.43;93.29;100087.69;5008013;28;20046;-80
2021/05/26 08:38:43;;;;;;;9.48;3.38;;;;;;;11.40;92.96;100076.41;4974694;28;20046;-80
2021/05/26 08:41:11;;;;;;;6.85;3.17;;;;;;;11.50;91.38;100072.28;4964883;28;20057;-80
2021/05/26 08:43:40;;;;;;;5.47;2.65;;;;;;;11.80;91.00;100091.84;4966705;28;20049;-80
2021/05/26 08:46:08;;;;;;;7.28;3.17;;;;;;;11.98;91.51;100075.78;4979560;28;20047;-80
2021/05/26 08:48:38;;;;;;;5.85;3.00;;;;;;;12.18;90.82;100065.72;4983213;28;20181;-80
2021/05/26 08:51:06;;;;;;;6.95;3.10;;;;;;;12.57;88.86;100077.59;4998047;28;20138;-81
2021/05/26 08:53:35;;;;;;;6.43;2.65;;;;;;;12.87;87.99;100073.06;4996396;28;20054;-82
2021/05/26 08:56:03;;;;;;;6.80;2.85;;;;;;;13.04;86.63;100072.03;4993475;28;20046;-81
2021/05/26 08:58:35;;;;;;;5.43;2.40;;;;;;;13.26;85.00;100072.41;4999016;28;20054;-82
2021/05/26 09:01:03;;;;;;;7.63;2.10;;;;;;;13.50;83.71;100072.66;4996041;28;20082;-81
2021/05/26 09:03:35;;;;;;;6.30;2.42;;;;;;;13.48;82.93;100074.56;4996679;28;20062;-82
2021/05/26 09:06:05;;;;;;;4.38;2.03;;;;;;;13.20;83.39;100061.31;5002838;28;20054;-82
2021/05/26 09:08:47;;;;;;;4.13;2.00;;;;;;;13.17;84.23;100062.34;4977446;28;20058;-82
2021/05/26 09:11:14;;;;;;;4.82;2.03;;;;;;;13.38;82.67;100065.44;5003777;28;20050;-80
2021/05/26 09:13:43;;;;;;;8.95;3.20;;;;;;;13.48;82.41;100057.75;4992981;28;20096;-82
2021/05/26 09:16:30;;;;;;;3.95;2.22;;;;;;;13.46;82.20;100062.31;4978172;28;20114;-82
2021/05/26 09:19:09;;;;;;;6.28;2.35;;;;;;;13.28;82.87;100053.69;5000113;28;20062;-82
2021/05/26 09:21:41;;;;;;;3.75;2.08;;;;;;;13.24;83.14;100050.38;4995186;28;20050;-82
2021/05/26 09:24:20;;;;;;;4.97;2.03;;;;;;;13.27;82.88;100049.31;4980868;28;20097;-81
2021/05/26 09:27:05;;;;;;;3.88;2.17;;;;;;;13.38;80.03;100046.81;4979369;28;20132;-81
2021/05/26 09:29:42;;;;;;;4.60;1.88;;;;;;;13.53;77.80;100042.34;4989074;28;20054;-81
2021/05/26 09:32:26;;;;;;;5.38;2.17;;;;;;;13.51;78.99;100041.59;4997269;28;20101;-81
2021/05/26 09:34:56;;;;;;;5.57;2.33;;;;;;;13.61;79.55;100042.69;4972365;28;20080;-80
2021/05/26 09:37:35;;;;;;;5.28;2.40;;;;;;;13.66;79.78;100045.94;4987358;28;21764;-80
2021/05/26 09:40:10;;;;;;;3.75;1.92;;;;;;;13.69;78.65;100041.22;4996943;28;20066;-79
2021/05/26 09:42:41;;;;;;;6.72;2.08;;;;;;;13.84;78.11;100035.88;4999149;28;20046;-79
2021/05/26 09:45:27;;;;;;;3.28;1.98;;;;;;;14.01;77.82;100039.09;4965053;28;20050;-82
2021/05/26 09:48:12;;;;;;;2.03;1.83;;;;;;;14.16;77.58;100041.72;4989875;28;20129;-83
2021/05/26 09:50:38;;;;;;;2.10;1.67;;;;;;;14.18;75.14;100032.66;4994235;28;20050;-79
2021/05/26 09:53:11;;;;;;;3.13;1.70;;;;;;;14.31;71.59;100035.38;4999273;28;20108;-82
2021/05/26 09:55:37;;;;;;;4.47;1.67;;;;;;;14.22;70.89;100044.81;5001485;28;20090;-83
2021/05/26 09:58:06;;;;;;;4.25;1.88;;;;;;;13.91;74.57;100029.19;4994130;28;20070;-81
2021/05/26 10:00:34;;;;;;;6.30;2.80;;;;;;;13.51;76.70;100037.13;4986603;28;20093;-79
2021/05/26 10:03:02;;;;;;;3.55;2.13;;;;;;;13.29;77.78;100034.13;5005479;28;20082;-79
2021/05/26 10:05:34;;;;;;;6.20;2.40;;;;;;;13.09;79.46;100038.00;5001514;28;20121;-84
2021/05/26 10:08:12;;;;;;;3.55;2.17;;;;;;;13.06;78.38;100030.25;5005886;28;20118;-82
2021/05/26 10:10:47;;;;;;;3.97;1.80;;;;;;;13.07;79.94;100039.06;4987473;28;20077;-81
2021/05/26 10:13:17;;;;;;;5.82;1.95;;;;;;;12.93;80.63;100034.59;4985837;28;20112;-82
2021/05/26 10:15:49;;;;;;;2.88;1.70;;;;;;;12.84;82.46;100036.03;5002403;28;20046;-81
2021/05/26 10:18:18;;;;;;;4.05;1.85;;;;;;;12.72;83.51;100033.28;4989923;28;20151;-80
2021/05/26 10:20:46;;;;;;;5.43;2.90;;;;;;;12.96;85.00;100034.41;4979818;28;20063;-80
2021/05/26 10:23:19;;;;;;;4.63;1.60;;;;;;;13.39;82.91;100032.56;4998702;28;20086;-81
2021/05/26 10:25:48;;;;;;;3.47;1.40;;;;;;;13.68;81.20;100036.03;5002575;28;20070;-86
2021/05/26 10:28:31;;;;;;;4.18;2.00;;;;;;;13.50;80.73;100045.22;4985522;28;20075;-82
2021/05/26 10:31:01;;;;;;;2.97;1.85;;;;;;;13.30;81.78;100039.34;4975112;28;20076;-82
2021/05/26 10:33:51;;;;;;;4.32;1.90;;;;;;;13.26;81.44;100040.50;5005076;28;20117;-81
2021/05/26 10:36:21;;;;;;;5.63;2.70;;;;;;;13.16;81.93;100027.91;4983761;28;20078;-80
2021/05/26 10:39:01;;;;;;;3.85;1.70;;;;;;;13.19;82.53;100027.69;5003668;28;20080;-84
2021/05/26 10:41:51;;;;;;;2.90;1.25;;;;;;;13.18;82.45;100026.84;5001543;28;20042;-80
2021/05/26 10:44:19;;;;;;;3.42;1.85;;;;;;;13.14;83.10;100032.41;4997587;28;20098;-86
2021/05/26 10:46:49;;;;;;;2.92;1.80;;;;;;;13.03;84.03;100024.28;5000644;28;20105;-80
2021/05/26 10:49:16;;;;;;;3.25;2.40;;;;;;;12.91;84.60;100023.22;5014184;28;20069;-82
2021/05/26 10:51:53;;;;;;;4.80;2.60;;;;;;;12.81;85.33;100025.59;5006295;28;20054;-81
2021/05/26 10:54:38;;;;;;;6.75;3.22;;;;;;;12.77;84.82;100023.22;4990007;28;20058;-83
2021/05/26 10:57:06;;;;;;;4.13;2.35;;;;;;;12.79;85.76;100022.19;4994995;28;20070;-84
2021/05/26 10:59:36;;;;;;;9.60;3.03;;;;;;;12.80;85.43;100020.38;5000987;28;20100;-80
2021/05/26 11:02:03;;;;;;;5.90;2.20;;;;;;;12.84;85.11;100006.81;4979311;28;20126;-81
2021/05/26 11:04:31;;;;;;;4.68;2.00;;;;;;;13.12;85.39;100002.41;4979779;28;20080;-80
2021/05/26 11:07:20;;;;;;;3.78;1.60;;;;;;;13.26;84.04;99999.75;5001298;28;20055;-80
2021/05/26 11:10:03;;;;;;;5.30;1.90;;;;;;;13.12;83.87;100000.59;4955790;28;20046;-79
2021/05/26 11:12:55;;;;;;;5.85;3.17;;;;;;;12.84;85.91;100001.50;4977781;28;20495;-82
2021/05/26 11:15:44;;;;;;;9.15;4.00;;;;;;;12.45;88.71;100006.59;4993152;28;20058;-81
2021/05/26 11:18:28;;;;;;;7.28;5.05;;;;;;;12.26;91.14;99994.47;4997468;28;20050;-82
2021/05/26 11:21:00;;;;;;;9.88;5.18;;;;;;;12.24;92.06;99996.34;5003954;28;20054;-80
2021/05/26 11:23:29;;;;;;;9.18;4.93;;;;;;;12.26;92.15;99991.81;5001581;28;20129;-79
2021/05/26 11:26:02;;;;;;;7.93;4.90;;;;;;;12.11;92.41;99982.13;4972915;28;20054;-85
2021/05/26 11:28:33;;;;;;;9.40;5.25;;;;;;;12.05;92.89;99990.44;4995667;28;20042;-81
2021/05/26 11:31:05;;;;;;;8.48;5.45;;;;;;;12.03;94.58;99984.34;5000950;28;20046;-81
2021/05/26 11:33:32;;;;;;;11.88;5.90;;;;;;;11.98;94.50;99982.91;4983509;28;20109;-81
2021/05/26 11:36:04;;;;;;;7.75;6.20;;;;;;;11.87;95.27;99980.91;4992068;28;20104;-79
2021/05/26 11:38:33;;;;;;;12.18;6.40;;;;;;;11.86;95.56;99981.84;4997748;28;20042;-78